PWSweather.com
Personal Weather Stations
Station Observations

OlomoucCZ

Lat: 49.5936202181, Lon: 17.2276005149

Elevation: 752

Station Type: Davis Vantage Pro 2 Activ

http://infopocasi-olomouc.cz

Latest ConditionsUpdated 1:00:17 PM GMT+01:01 Sunday, Oct 22, 2017
Currently Today's Max Today's Min Today's Average
Temperature 51.2°F10.7°C 52.4°F11.3°C 50.1°F10.1°C 50.9°F10.5°C
Dew Point 49.5°F9.7°C 51.5°F10.8°C 49.5°F9.7°C 50.4°F10.2°C
Winds 5.5 mph W8.9 kmh W 9.2 mph W14.8 kmh W - 2.3 mph 3.7 kmh
Wind Gusts 9.0 mph14.5 kmh 13.0 mph20.9 kmh - -
Humidity 94% 100% 92% 98%
Pressure 29.97 in1014.9 mb 30.00 in1015.9 mb 29.93 in1013.5 mb -
Precipitation - 0.28 in7.1 mm - -
Hour Temp Dew Point Humidity Winds Wind Gusts Pressure Precip Precip Rate Daily Precip Total
01:00 PM 51.2°F10.7°C 49.5°F9.7°C 94% 5.5 mph W8.9 kmh W 9.0 mph14.5 kmh 29.97 in1014.9 mb - 0.01 in0.3 mm 0.28 in7.1 mm
12:30 PM 51.9°F11.1°C 49.6°F9.8°C 92% 7.6 mph WNW12.2 kmh WNW 9.0 mph14.5 kmh 29.98 in1015.2 mb - 0.00 in0.0 mm 0.27 in6.9 mm
12:00 PM 52.4°F11.3°C 50.7°F10.4°C 94% 4.1 mph WNW6.6 kmh WNW 5.0 mph8.0 kmh 29.97 in1014.9 mb - 0.00 in0.0 mm 0.26 in6.6 mm
11:30 AM 52.2°F11.2°C 51.1°F10.6°C 96% 4.7 mph W7.6 kmh W 8.0 mph12.9 kmh 29.98 in1015.2 mb - 0.00 in0.0 mm 0.26 in6.6 mm
11:00 AM 51.4°F10.8°C 50.3°F10.2°C 96% 4.9 mph NW7.9 kmh NW 10.0 mph16.1 kmh 29.97 in1014.9 mb - 0.01 in0.3 mm 0.26 in6.6 mm
10:30 AM 51.4°F10.8°C 50.9°F10.5°C 98% 9.2 mph W14.8 kmh W 13.0 mph20.9 kmh 29.98 in1015.2 mb - 0.02 in0.5 mm 0.25 in6.4 mm
10:00 AM 51.8°F11.0°C 51.5°F10.8°C 99% 3.0 mph WSW4.8 kmh WSW 7.0 mph11.3 kmh 29.97 in1014.9 mb - 0.00 in0.0 mm 0.24 in6.1 mm
09:30 AM 51.6°F10.9°C 51.3°F10.7°C 99% 1.5 mph NW2.4 kmh NW 2.0 mph3.2 kmh 29.96 in1014.6 mb - 0.01 in0.3 mm 0.23 in5.8 mm
09:00 AM 51.3°F10.7°C 51.0°F10.6°C 99% Calm Calm -- 29.95 in1014.2 mb - 0.00 in0.0 mm 0.22 in5.6 mm
08:30 AM 51.1°F10.6°C 51.1°F10.6°C 100% Calm Calm -- 29.95 in1014.2 mb - 0.00 in0.0 mm 0.22 in5.6 mm
08:00 AM 50.8°F10.4°C 50.8°F10.4°C 100% 2.3 mph NW3.7 kmh NW 5.0 mph8.0 kmh 29.95 in1014.2 mb - 0.01 in0.3 mm 0.22 in5.6 mm
07:30 AM 50.6°F10.3°C 50.6°F10.3°C 100% Calm Calm -- 29.95 in1014.2 mb - 0.08 in2.0 mm 0.21 in5.3 mm
07:00 AM 50.7°F10.4°C 50.4°F10.2°C 99% 0.2 mph W0.3 kmh W 1.0 mph1.6 kmh 29.95 in1014.2 mb - 0.14 in3.6 mm 0.14 in3.6 mm
06:30 AM 50.6°F10.3°C 50.3°F10.2°C 99% 4.2 mph WNW6.8 kmh WNW 7.0 mph11.3 kmh 29.95 in1014.2 mb - 0.00 in0.0 mm 0.00 in0.0 mm
06:00 AM 50.6°F10.3°C 50.3°F10.2°C 99% 0.6 mph ESE1.0 kmh ESE 1.0 mph1.6 kmh 29.93 in1013.5 mb - 0.00 in0.0 mm 0.00 in0.0 mm
05:30 AM 50.7°F10.4°C 50.7°F10.4°C 100% 1.2 mph E1.9 kmh E 3.0 mph4.8 kmh 29.93 in1013.5 mb - 0.00 in0.0 mm 0.00 in0.0 mm
05:00 AM 50.7°F10.4°C 50.4°F10.2°C 99% 1.3 mph ESE2.1 kmh ESE 2.0 mph3.2 kmh 29.94 in1013.9 mb - 0.00 in0.0 mm 0.00 in0.0 mm
04:30 AM 50.8°F10.4°C 50.5°F10.3°C 99% 3.2 mph ESE5.1 kmh ESE 3.0 mph4.8 kmh 29.95 in1014.2 mb - 0.00 in0.0 mm 0.00 in0.0 mm
04:00 AM 50.7°F10.4°C 50.4°F10.2°C 99% 3.5 mph ESE5.6 kmh ESE 6.0 mph9.7 kmh 29.95 in1014.2 mb - 0.00 in0.0 mm 0.00 in0.0 mm
03:30 AM 50.9°F10.5°C 50.6°F10.3°C 99% 2.4 mph ESE3.9 kmh ESE 3.0 mph4.8 kmh 29.96 in1014.6 mb - 0.00 in0.0 mm 0.00 in0.0 mm
03:00 AM 50.8°F10.4°C 50.5°F10.3°C 99% 1.2 mph NE1.9 kmh NE 2.0 mph3.2 kmh 29.97 in1014.9 mb - 0.00 in0.0 mm 0.00 in0.0 mm
02:30 AM 50.4°F10.2°C 50.1°F10.1°C 99% Calm Calm -- 29.97 in1014.9 mb - 0.00 in0.0 mm 0.00 in0.0 mm
02:00 AM 50.2°F10.1°C 49.9°F9.9°C 99% Calm Calm -- 29.98 in1015.2 mb - 0.00 in0.0 mm 0.00 in0.0 mm
01:30 AM 50.1°F10.1°C 49.8°F9.9°C 99% 0.9 mph NE1.4 kmh NE 1.0 mph1.6 kmh 29.99 in1015.6 mb - 0.00 in0.0 mm 0.00 in0.0 mm
01:00 AM 50.1°F10.1°C 49.8°F9.9°C 99% Calm Calm 1.0 mph1.6 kmh 29.99 in1015.6 mb - 0.00 in0.0 mm 0.00 in0.0 mm
12:30 AM 50.1°F10.1°C 49.8°F9.9°C 99% Calm Calm -- 29.99 in1015.6 mb - 0.00 in0.0 mm 0.00 in0.0 mm
12:00 AM 50.3°F10.2°C 50.0°F10.0°C 99% Calm Calm -- 30.00 in1015.9 mb - 0.00 in0.0 mm 0.00 in0.0 mm